Terminal Aerodrome Forecast
Issued by NWS

Home | Current Version | Previous Version | Text Only | Print | Product List | Glossary On
Versions: 1 2 3 4 5 6 7 8 9 10 11 12 13 14 15 16 17
000
FTUS42 KFFC 041501 AAB
TAFPDK
TAF AMD
KPDK 041501Z 0415/0512 09008G16KT 4SM -RA BR BKN008 OVC025
     FM041800 08012G18KT 5SM -RA BR BKN006 OVC012
     FM050000 07007KT 3SM -RA BR OVC005
     FM050800 04005KT 2SM -RADZ BR OVC003=

USA.gov is the U.S. government's official web portal to all federal, state and local government web resources and services.